Flight Track Log - Related Links

Times and Time Zones

All times are in EST time to prevent confusion due to time zone crossing. See the EJA929 flight status page for this flight to view local times or setup timezone preferences in your user account.


Time Position Orientation Groundspeed Altitude Reporting Facility
EST Latitude Longitude Course Direction KTS MPH feet Rate Location/Type
Sun 03:39:27 PM 41.7825 -87.8161 240° Southwest 232 267 2,000  Level Chicago Center
Sun 03:40:28 PM 41.7508 -87.8900 240° Southwest 224 258 2,900 2,164 Climbing Chicago Center
Sun 03:41:29 PM 41.7447 -88.0022 266° West 263 303 6,400 3,049 Climbing Chicago Center
Sun 03:42:30 PM 41.8047 -88.0350 338° Northwest 261 300 9,100 2,439 Climbing Chicago Center
Sun 03:43:32 PM 41.8814 -88.0406 357° North 273 314 11,400 2,293 Climbing Chicago Center
Sun 03:44:33 PM 41.9628 -88.0408 360° North 290 334 13,800 1,918 Climbing Chicago Center
Sun 03:45:34 PM 42.0500 -88.0392 North 312 359 15,300 1,230 Climbing Chicago Center
Sun 03:46:35 PM 42.1500 -88.0361 North 354 407 16,300 976 Climbing Chicago Center
Sun 03:47:37 PM 42.2586 -88.0342 North 387 445 17,300 1,122 Climbing Chicago Center
Sun 03:48:38 PM 42.3883 -88.0431 357° North 413 475 18,600 1,475 Climbing Chicago Center
Sun 03:49:39 PM 42.5025 -88.0839 345° North 424 488 20,300 1,672 Climbing Chicago Center
Sun 03:50:40 PM 42.6053 -88.1456 336° Northwest 405 466 22,000 1,475 Climbing Chicago Center
Sun 03:51:41 PM 42.6547 -88.2708 298° West 378 435 23,300 1,268 Climbing Chicago Center
Sun 03:52:43 PM 42.6972 -88.4044 293° West 382 440 24,600 1,268 Climbing Chicago Center
Sun 03:53:44 PM 42.7417 -88.5422 294° West 393 452 25,900 1,377 Climbing Chicago Center
Sun 03:54:45 PM 42.7875 -88.6869 293° West 405 466 27,400 1,475 Climbing Chicago Center
Sun 03:55:46 PM 42.8353 -88.8417 293° West 428 493 28,900 1,463 Climbing Chicago Center
Sun 03:56:48 PM 42.8858 -89.0050 293° West 459 528 30,400 1,463 Climbing Chicago Center
Sun 03:57:49 PM 42.9361 -89.1650 293° West 461 531 31,900 1,475 Climbing Chicago Center
Sun 03:58:50 PM 42.9872 -89.3283 293° West 467 537 33,400 1,623 Climbing Chicago Center
Sun 03:59:51 PM 43.0486 -89.5264 293° West 471 542 35,200 1,610 Climbing Chicago Center
Sun 04:00:53 PM 43.0975 -89.6883 293° West 466 536 36,700 1,463 Climbing Chicago Center
Sun 04:01:54 PM 43.1425 -89.8447 292° West 452 520 38,200 1,377 Climbing Chicago Center
Sun 04:02:55 PM 43.1883 -90.0000 292° West 441 507 39,500 1,122 Climbing Chicago Center
Sun 04:03:57 PM 43.2344 -90.1544 292° West 438 504 40,500 927 Climbing Chicago Center
Sun 04:04:58 PM 43.2747 -90.2956 291° West 433 498 41,400 787 Climbing Chicago Center
Sun 04:05:59 PM 43.3289 -90.4758 292° West 430 495 42,100 537 Climbing Chicago Center
Sun 04:07:01 PM 43.3736 -90.6292 292° West 435 501 42,500 341 Climbing Chicago Center
Sun 04:08:02 PM 43.4178 -90.7831 292° West 437 503 42,800 246 Climbing Chicago Center
Sun 04:09:03 PM 43.4642 -90.9372 293° West 439 505 43,000 98 Climbing Chicago Center
Sun 04:10:04 PM 43.5103 -91.0947 292° West 447 514 43,000  Level Chicago Center
Sun 04:10:51 PM 43.5464 -91.2211 292° West 447 514 43,000  Level Minneapolis Center
Sun 04:11:52 PM 43.5917 -91.3836 291° West 453 521 43,000  Level Minneapolis Center
Sun 04:12:54 PM 43.6375 -91.5447 292° West 456 525 43,000  Level Minneapolis Center
Sun 04:13:55 PM 43.6833 -91.7081 291° West 459 528 43,000  Level Minneapolis Center
Sun 04:14:57 PM 43.7381 -91.9031 291° West 458 527 43,000  Level Minneapolis Center
Sun 04:15:59 PM 43.7831 -92.0672 291° West 460 529 43,000  Level Minneapolis Center
Sun 04:17:01 PM 43.8319 -92.2431 291° West 457 526 43,000  Level Minneapolis Center
Sun 04:18:02 PM 43.8775 -92.4089 291° West 461 531 43,000  Level Minneapolis Center
Sun 04:19:04 PM 43.9214 -92.5756 290° West 460 529 43,000  Level Minneapolis Center
Sun 04:20:05 PM 43.9658 -92.7422 290° West 461 531 43,000  Level Minneapolis Center
Sun 04:21:07 PM 44.0111 -92.9089 291° West 461 531 43,000  Level Minneapolis Center
Sun 04:22:08 PM 44.0558 -93.0772 290° West 463 533 43,000  Level Minneapolis Center
Sun 04:23:10 PM 44.1000 -93.2458 290° West 462 532 43,000  Level Minneapolis Center
Sun 04:24:12 PM 44.1447 -93.4136 290° West 461 531 43,000  Level Minneapolis Center
Sun 04:25:13 PM 44.1883 -93.5808 290° West 459 528 43,000  Level Minneapolis Center
Sun 04:26:15 PM 44.2400 -93.7814 290° West 458 527 43,000  Level Minneapolis Center
Sun 04:27:17 PM 44.2825 -93.9503 289° West 459 528 43,000  Level Minneapolis Center
Sun 04:28:18 PM 44.3256 -94.1167 290° West 457 526 43,000  Level Minneapolis Center
Sun 04:29:20 PM 44.3681 -94.2856 289° West 458 527 43,000  Level Minneapolis Center
Sun 04:30:21 PM 44.4108 -94.4536 290° West 460 529 43,000  Level Minneapolis Center
Sun 04:31:23 PM 44.4558 -94.6414 289° West 458 527 43,000  Level Minneapolis Center
Sun 04:32:25 PM 44.4972 -94.8067 289° West 454 522 43,000  Level Minneapolis Center
Sun 04:33:26 PM 44.5375 -94.9736 289° West 454 522 43,000  Level Minneapolis Center
Sun 04:34:28 PM 44.5772 -95.1411 288° West 455 524 43,000  Level Minneapolis Center
Sun 04:35:30 PM 44.6175 -95.3089 289° West 456 525 43,000  Level Minneapolis Center
Sun 04:36:31 PM 44.6572 -95.4781 288° West 459 528 43,000  Level Minneapolis Center
Sun 04:37:34 PM 44.7058 -95.6833 288° West 465 535 43,000  Level Minneapolis Center
Sun 04:38:35 PM 44.7461 -95.8544 288° West 466 536 43,000  Level Minneapolis Center
Sun 04:39:37 PM 44.7864 -96.0264 288° West 467 537 43,000  Level Minneapolis Center
Sun 04:40:39 PM 44.8253 -96.1975 288° West 465 535 43,000  Level Minneapolis Center
Sun 04:41:40 PM 44.8647 -96.3692 288° West 464 534 43,000  Level Minneapolis Center
Sun 04:42:42 PM 44.9047 -96.5422 288° West 467 537 43,000  Level Minneapolis Center
Sun 04:43:44 PM 44.9514 -96.7508 288° West 468 539 43,000  Level Minneapolis Center
Sun 04:44:45 PM 44.9903 -96.9258 287° West 470 541 43,000  Level Minneapolis Center
Sun 04:45:47 PM 45.0300 -97.1008 288° West 470 541 43,000  Level Minneapolis Center
Sun 04:46:49 PM 45.0683 -97.2767 287° West 470 541 43,000  Level Minneapolis Center
Sun 04:47:50 PM 45.1083 -97.4517 288° West 469 540 43,000  Level Minneapolis Center
Sun 04:48:52 PM 45.1464 -97.6269 287° West 468 539 43,000  Level Minneapolis Center
Sun 04:49:54 PM 45.1906 -97.8364 287° West 465 535 43,000  Level Minneapolis Center
Sun 04:50:56 PM 45.2286 -98.0103 287° West 465 535 43,000  Level Minneapolis Center
Sun 04:51:57 PM 45.2583 -98.1656 285° West 465 535 43,000  Level Minneapolis Center
Sun 04:52:59 PM 45.3019 -98.3758 286° West 465 535 43,000  Level Minneapolis Center
Sun 04:54:01 PM 45.3397 -98.5539 287° West 470 541 43,000  Level Minneapolis Center
Sun 04:55:02 PM 45.3767 -98.7311 287° West 471 542 43,000  Level Minneapolis Center
Sun 04:56:04 PM 45.4117 -98.9089 286° West 470 541 43,000  Level Minneapolis Center
Sun 04:57:05 PM 45.4464 -99.0836 286° West 465 535 43,000  Level Minneapolis Center
Sun 04:58:07 PM 45.4831 -99.2583 287° West 463 533 43,000  Level Minneapolis Center
Sun 04:59:09 PM 45.5244 -99.4692 286° West 465 535 43,000  Level Minneapolis Center
Sun 05:00:10 PM 45.5578 -99.6431 285° West 461 531 43,000  Level Minneapolis Center
Sun 05:01:12 PM 45.5914 -99.8169 285° West 461 531 43,000  Level Minneapolis Center
Sun 05:02:13 PM 45.6247 -99.9911 285° West 460 529 43,000  Level Minneapolis Center
Sun 05:03:15 PM 45.6575 -100.1644 285° West 457 526 43,000 -48 Level Minneapolis Center
Sun 05:04:17 PM 45.6906 -100.3389 285° West 457 526 42,900  Descending Minneapolis Center
Sun 05:05:18 PM 45.7311 -100.5528 285° West 465 535 43,000 49 Climbing Minneapolis Center
Sun 05:06:20 PM 45.7633 -100.7272 285° West 461 531 43,000  Level Minneapolis Center
Sun 05:07:21 PM 45.7967 -100.9042 285° West 461 531 43,000  Level Minneapolis Center
Sun 05:08:23 PM 45.8281 -101.0819 284° West 462 532 43,000  Level Minneapolis Center
Sun 05:09:24 PM 45.8622 -101.2611 285° West 466 536 43,000  Level Minneapolis Center
Sun 05:10:26 PM 45.8936 -101.4389 284° West 464 534 43,000  Level Minneapolis Center
Sun 05:11:27 PM 45.9272 -101.6156 285° West 462 532 43,000  Level Minneapolis Center
Sun 05:12:29 PM 45.9556 -101.7947 283° West 461 531 43,000  Level Minneapolis Center
Sun 05:13:30 PM 45.9897 -102.0111 283° West 463 533 43,000  Level Minneapolis Center
Sun 05:14:32 PM 46.0206 -102.1892 284° West 463 533 43,000  Level Minneapolis Center
Sun 05:15:33 PM 46.0517 -102.3694 284° West 463 533 43,000  Level Minneapolis Center
Sun 05:16:35 PM 46.0817 -102.5483 284° West 463 533 43,000 -49 Level Minneapolis Center
Sun 05:17:36 PM 46.1142 -102.7244 285° West 464 534 42,900 -49 Descending Minneapolis Center
Sun 05:18:38 PM 46.1453 -102.9092 284° West 467 537 42,900  Level Minneapolis Center
Sun 05:19:39 PM 46.1731 -103.0925 282° West 469 540 42,900 49 Level Minneapolis Center
Sun 05:20:40 PM 46.2019 -103.2714 283° West 466 536 43,000 49 Climbing Minneapolis Center
Sun 05:21:42 PM 46.2300 -103.4519 283° West 464 534 43,000 -49 Level Minneapolis Center
Sun 05:22:43 PM 46.2639 -103.6653 283° West 460 529 42,900  Descending Minneapolis Center
Sun 05:23:45 PM 46.2917 -103.8433 283° West 457 526 43,000  Climbing Minneapolis Center
Sun 05:24:46 PM 46.3183 -104.0228 282° West 457 526 42,900  Descending Minneapolis Center
Sun 05:25:48 PM 46.3458 -104.2056 282° West 458 527 43,000  Climbing Minneapolis Center
Sun 05:26:49 PM 46.3731 -104.3906 282° West 463 533 42,900 -41 Descending Minneapolis Center
Sun 05:28:14 PM 46.4081 -104.6461 281° West 464 534 42,900 41 Level Salt Lake Center
Sun 05:29:16 PM 46.4350 -104.8383 282° West 465 535 43,000 48 Climbing Salt Lake Center
Sun 05:30:18 PM 46.4614 -105.0192 282° West 463 533 43,000  Level Salt Lake Center
Sun 05:31:20 PM 46.4872 -105.2019 282° West 464 534 43,000  Level Salt Lake Center
Sun 05:32:22 PM 46.5175 -105.4186 282° West 461 531 43,000  Level Salt Lake Center
Sun 05:33:24 PM 46.5431 -105.6003 282° West 461 531 43,000  Level Salt Lake Center
Sun 05:34:26 PM 46.5694 -105.7864 282° West 467 537 43,000  Level Salt Lake Center
Sun 05:35:28 PM 46.5933 -105.9683 281° West 466 536 43,000  Level Salt Lake Center
Sun 05:36:30 PM 46.6164 -106.1503 281° West 463 533 43,000  Level Salt Lake Center
Sun 05:37:32 PM 46.6456 -106.3694 281° West 462 532 43,000  Level Salt Lake Center
Sun 05:38:34 PM 46.6725 -106.5608 282° West 468 539 43,000  Level Salt Lake Center
Sun 05:39:36 PM 46.6950 -106.7464 280° West 470 541 43,000  Level Salt Lake Center
Sun 05:40:38 PM 46.7183 -106.9283 281° West 463 533 43,000  Level Salt Lake Center
Sun 05:41:40 PM 46.7406 -107.1119 280° West 463 533 43,000  Level Salt Lake Center
Sun 05:42:42 PM 46.7636 -107.2953 280° West 463 533 43,000  Level Salt Lake Center
Sun 05:43:44 PM 46.7897 -107.5147 280° West 461 531 43,000  Level Salt Lake Center
Sun 05:44:46 PM 46.8106 -107.6939 280° West 458 527 43,000  Level Salt Lake Center
Sun 05:45:48 PM 46.8319 -107.8722 280° West 454 522 43,000  Level Salt Lake Center
Sun 05:46:50 PM 46.8533 -108.0678 279° West 465 535 43,000  Level Salt Lake Center
Sun 05:47:52 PM 46.8739 -108.2539 279° West 467 537 43,000  Level Salt Lake Center
Sun 05:48:55 PM 46.8978 -108.4708 279° West 457 526 43,000  Level Salt Lake Center
Sun 05:49:57 PM 46.9178 -108.6533 279° West 457 526 43,000  Level Salt Lake Center
Sun 05:50:59 PM 46.9369 -108.8347 279° West 455 524 43,000  Level Salt Lake Center
Sun 05:52:01 PM 46.9569 -109.0183 279° West 457 526 43,000  Level Salt Lake Center
Sun 05:53:03 PM 46.9783 -109.2011 280° West 460 529 43,000 -48 Level Salt Lake Center
Sun 05:54:05 PM 46.9967 -109.3869 278° West 461 531 42,900  Descending Salt Lake Center
Sun 05:55:07 PM 47.0142 -109.5678 278° West 453 521 43,000  Climbing Salt Lake Center
Sun 05:56:09 PM 47.0367 -109.7864 279° West 452 520 42,900 -48 Descending Salt Lake Center
Sun 05:57:11 PM 47.0544 -109.9703 278° West 454 522 42,900  Level Salt Lake Center
Sun 05:58:13 PM 47.0708 -110.1553 277° West 456 525 42,900  Level Salt Lake Center
Sun 05:59:15 PM 47.0875 -110.3383 278° West 455 524 42,900  Level Salt Lake Center
Sun 06:00:17 PM 47.1053 -110.5228 278° West 456 525 42,900 48 Level Salt Lake Center
Sun 06:01:19 PM 47.1211 -110.7067 277° West 453 521 43,000  Climbing Salt Lake Center
Sun 06:02:21 PM 47.1411 -110.9206 278° West 442 509 42,900 -48 Descending Salt Lake Center
Sun 06:03:23 PM 47.1561 -111.1006 277° West 442 509 42,900  Level Salt Lake Center
Sun 06:04:25 PM 47.1717 -111.2800 277° West 441 507 42,900  Level Salt Lake Center
Sun 06:05:27 PM 47.1869 -111.4608 277° West 442 509 42,900  Level Salt Lake Center
Sun 06:06:29 PM 47.2017 -111.6419 277° West 443 510 42,900  Level Salt Lake Center
Sun 06:07:31 PM 47.2164 -111.8231 277° West 445 512 42,900  Level Salt Lake Center
Sun 06:08:33 PM 47.2311 -112.0067 277° West 450 518 42,900  Level Salt Lake Center
Sun 06:09:35 PM 47.2436 -112.1883 276° West 447 514 42,900  Level Salt Lake Center
Sun 06:10:37 PM 47.2597 -112.4003 276° West 437 503 42,900  Level Salt Lake Center
Sun 06:11:39 PM 47.2733 -112.5769 277° West 434 499 42,900  Level Salt Lake Center
Sun 06:12:40 PM 47.2864 -112.7517 276° West 432 497 42,900  Level Salt Lake Center
Sun 06:13:42 PM 47.2981 -112.9275 276° West 432 497 42,900  Level Salt Lake Center
Sun 06:14:44 PM 47.3108 -113.0981 276° West 437 503 42,900  Level Salt Lake Center
Sun 06:15:46 PM 47.3239 -113.3108 275° West 435 501 42,900  Level Salt Lake Center
Sun 06:16:48 PM 47.3361 -113.4881 276° West 436 502 42,900  Level Salt Lake Center
Sun 06:17:49 PM 47.3475 -113.6681 275° West 439 505 42,900  Level Salt Lake Center
Sun 06:18:51 PM 47.3592 -113.8475 276° West 440 506 42,900  Level Salt Lake Center
Sun 06:19:53 PM 47.3708 -114.0272 276° West 439 505 42,900  Level Salt Lake Center
Sun 06:20:55 PM 47.3808 -114.2050 275° West 435 501 42,900  Level Salt Lake Center
Sun 06:21:57 PM 47.3911 -114.3811 275° West 430 495 42,900  Level Salt Lake Center
Sun 06:22:58 PM 47.4017 -114.5581 275° West 431 496 42,900  Level Salt Lake Center
Sun 06:24:00 PM 47.4128 -114.7714 274° West 433 498 42,900  Level Salt Lake Center
Sun 06:24:47 PM 47.4194 -114.8769 275° West 430 495 42,900  Level Seattle Center
Sun 06:25:48 PM 47.4281 -115.0536 274° West 430 495 42,900  Level Seattle Center
Sun 06:26:49 PM 47.4375 -115.2286 275° West 429 494 42,900  Level Seattle Center
Sun 06:27:50 PM 47.4467 -115.4408 274° West 431 496 42,900  Level Seattle Center
Sun 06:28:51 PM 47.4558 -115.6183 274° West 433 498 42,900  Level Seattle Center
Sun 06:29:52 PM 47.4647 -115.7736 275° West 434 499 42,900  Level Seattle Center
Sun 06:30:53 PM 47.4756 -115.9519 275° West 437 503 42,900  Level Seattle Center
Sun 06:31:54 PM 47.4881 -116.1664 275° West 439 505 42,900  Level Seattle Center
Sun 06:32:55 PM 47.4981 -116.3461 275° West 439 505 42,900  Level Seattle Center
Sun 06:33:56 PM 47.5089 -116.5267 275° West 441 507 42,900  Level Seattle Center
Sun 06:34:57 PM 47.5189 -116.7108 275° West 448 516 42,900  Level Seattle Center
Sun 06:35:58 PM 47.5292 -116.8933 275° West 447 514 42,900  Level Seattle Center
Sun 06:36:59 PM 47.5378 -117.0639 274° West 449 517 42,900  Level Seattle Center
Sun 06:38:00 PM 47.5478 -117.2747 274° West 448 516 42,900  Level Seattle Center
Sun 06:39:01 PM 47.5567 -117.4592 274° West 447 514 42,900  Level Seattle Center
Sun 06:40:02 PM 47.5658 -117.6425 274° West 448 516 42,900  Level Seattle Center
Sun 06:41:03 PM 47.5836 -117.8244 278° West 446 513 42,900  Level Seattle Center
Sun 06:42:04 PM 47.6006 -118.0064 278° West 447 514 42,900  Level Seattle Center
Sun 06:43:05 PM 47.6169 -118.1908 278° West 451 519 42,900  Level Seattle Center
Sun 06:44:06 PM 47.6339 -118.3731 278° West 449 517 42,900  Level Seattle Center
Sun 06:45:07 PM 47.6508 -118.5578 278° West 452 520 42,900  Level Seattle Center
Sun 06:46:08 PM 47.6658 -118.7422 277° West 452 520 42,900  Level Seattle Center
Sun 06:47:08 PM 47.6817 -118.9289 277° West 455 524 42,900 -99 Level Seattle Center
Sun 06:48:09 PM 47.6975 -119.1128 277° West 452 520 42,700 -934 Descending Seattle Center
Sun 06:49:10 PM 47.7133 -119.2986 277° West 453 521 41,000 -1,820 Descending Seattle Center
Sun 06:50:11 PM 47.7278 -119.4869 277° West 459 528 39,000 -2,164 Descending Seattle Center
Sun 06:51:12 PM 47.7467 -119.7144 277° West 465 535 36,600 -2,213 Descending Seattle Center
Sun 06:52:13 PM 47.7611 -119.9061 276° West 467 537 34,500 -2,262 Descending Seattle Center
Sun 06:53:14 PM 47.7750 -120.0942 276° West 460 529 32,000 -2,705 Descending Seattle Center
Sun 06:54:15 PM 47.7889 -120.2858 276° West 465 535 29,000 -2,803 Descending Seattle Center
Sun 06:55:16 PM 47.8028 -120.4772 276° West 466 536 26,300 -2,557 Descending Seattle Center
Sun 06:56:17 PM 47.8167 -120.6606 277° West 449 517 23,800 -2,459 Descending Seattle Center
Sun 06:57:18 PM 47.8289 -120.8394 276° West 438 504 21,300 -2,571 Descending Seattle Center
Sun 06:58:16 PM 47.8442 -121.0225 277° West 421 484 18,700 -2,262 Descending Seattle Center
Sun 06:58:19 PM 47.8428 -121.0050 97° East 424 488 19,000 -1,959 Climbing Seattle Center
Sun 06:59:05 PM 47.8522 -121.1639 275° West 410 472 17,100 -1,967 Descending Seattle Center
Sun 06:59:20 PM 47.8525 -121.1739 272° West 411 473 17,000 -2,459 Descending Seattle Center
Sun 07:00:06 PM 47.8622 -121.3208 276° West 374 430 14,600 -2,769 Descending Seattle Center
Sun 07:00:25 PM 47.8644 -121.3597 275° West 370 426 14,000 -2,459 Descending Seattle Center
Sun 07:01:07 PM 47.8728 -121.4642 277° West 326 375 12,100 -2,500 Descending Seattle Center
Sun 07:01:25 PM 47.8725 -121.4986 269° West 337 388 11,500 -1,091 Descending Seattle Center
Sun 07:02:02 PM 47.8783 -121.5803 276° West 302 348 11,100 -492 Descending Seattle Center
Sun 07:02:26 PM 47.8803 -121.6214 274° West 300 345 11,000 -197 Descending Seattle Center
Sun 07:03:03 PM 47.8786 -121.7028 268° West 292 336 10,900 -393 Descending Seattle Center
Sun 07:03:27 PM 47.8611 -121.7369 233° Southwest 298 343 10,600 -1,273 Descending Seattle Center
Sun 07:04:09 PM 47.8081 -121.7925 215° Southwest 298 343 9,500 -1,574 Descending Seattle Center
Sun 07:04:28 PM 47.7836 -121.8044 198° South 292 336 9,000 -1,548 Descending Seattle Center
Sun 07:05:11 PM 47.7308 -121.8297 198° South 295 339 7,900 -1,574 Descending Seattle Center
Sun 07:05:29 PM 47.7061 -121.8406 196° South 290 334 7,400 -1,556 Descending Seattle Center
Sun 07:06:05 PM 47.6631 -121.8611 198° South 277 319 6,500 -1,574 Descending Seattle Center
Sun 07:06:30 PM 47.6356 -121.8750 199° South 270 311 5,800 -1,254 Descending Seattle Center
Sun 07:07:12 PM 47.5886 -121.9000 200° South 259 298 5,100 -689 Descending Seattle Center
Sun 07:07:31 PM 47.5678 -121.9114 200° South 259 298 5,100 -492 Level Seattle Center
Sun 07:08:13 PM 47.5217 -121.9342 198° South 256 295 4,600 -787 Descending Seattle Center
Sun 07:08:32 PM 47.5000 -121.9478 203° Southwest 259 298 4,300 -358 Descending Seattle Center
Sun 07:09:20 PM 47.4456 -121.9931 209° Southwest 265 305 4,200 -98 Descending Seattle Center
Sun 07:09:33 PM 47.4375 -122.0172 244° Southwest 271 312 4,200 -295 Level Seattle Center
Sun 07:10:21 PM 47.4103 -122.0817 238° Southwest 243 280 3,900 -787 Descending Seattle Center
Sun 07:10:34 PM 47.4022 -122.1011 239° Southwest 244 281 3,400 -1,855 Descending Seattle Center
Sun 07:11:16 PM 47.3914 -122.1642 256° West 231 266 2,200 -1,279 Descending Seattle Center
Sun 07:11:35 PM 47.3953 -122.1906 282° West 229 264 2,100  Descending Seattle Center
Sun 07:12:17 PM 47.4242 -122.2147 330° Northwest 167 192 2,200  Climbing Seattle Center
Sun 07:12:36 PM 47.4364 -122.2244 332° Northwest 170 196 2,100 -590 Descending Seattle Center
Sun 07:13:18 PM 47.4597 -122.2411 334° Northwest 131 151 1,600 -689 Descending Seattle Center
Sun 07:13:37 PM 47.4683 -122.2522 319° Northwest 139 160 1,400 -787 Descending Seattle Center
Sun 07:14:19 PM 47.4894 -122.2706 330° Northwest 108 124 800 -787 Descending Seattle Center
Sun 07:14:38 PM 47.4981 -122.2767 334° Northwest 117 135 600 -525 Descending Seattle Center
Sun 07:15:39 PM 47.5264 -122.3000 331° Northwest 114 131 100 -492 Descending Seattle Center

Login

Don't have an account? Register now (free) for customized features, flight alerts, and more!